Time;durP1;ratioP1;P1;durP2;ratioP2;P2;SDS_P1;SDS_P2;PMS_P1;PMS_P2;Temp;Humidity;BMP_temperature;BMP_pressure;BME280_temperature;BME280_humidity;BME280_pressure;Samples;Min_cycle;Max_cycle;Signal;HPM_P1;HPM_P2
2021/05/10 00:01:30;;;;;;;2.00;1.63;;;;;;;16.42;65.40;97098.31;5093343;28;20597;-63
2021/05/10 00:03:56;;;;;;;2.23;1.97;;;;;;;16.34;65.36;97087.59;5093583;28;20207;-62
2021/05/10 00:06:22;;;;;;;2.83;1.80;;;;;;;16.35;65.49;97091.91;5093361;28;20211;-63
2021/05/10 00:08:48;;;;;;;2.83;2.00;;;;;;;16.33;65.24;97082.44;5093414;28;20244;-64
2021/05/10 00:11:15;;;;;;;1.90;1.70;;;;;;;16.24;65.67;97086.94;5091801;28;20214;-64
2021/05/10 00:13:45;;;;;;;2.20;1.90;;;;;;;16.25;65.76;97099.25;5093396;28;20207;-64
2021/05/10 00:16:11;;;;;;;2.37;1.90;;;;;;;16.26;66.28;97118.75;5093057;28;20234;-65
2021/05/10 00:18:37;;;;;;;2.03;1.77;;;;;;;16.39;66.01;97119.97;5093176;28;20224;-64
2021/05/10 00:21:04;;;;;;;2.17;1.70;;;;;;;16.54;65.17;97118.31;5092786;28;20212;-64
2021/05/10 00:23:30;;;;;;;2.10;1.70;;;;;;;16.71;63.66;97111.13;5093150;28;20548;-63
2021/05/10 00:25:56;;;;;;;2.30;1.90;;;;;;;16.80;64.26;97102.94;5092810;28;20206;-64
2021/05/10 00:28:22;;;;;;;2.10;1.80;;;;;;;16.86;64.41;97102.25;5093066;28;20206;-64
2021/05/10 00:30:49;;;;;;;1.93;1.80;;;;;;;16.89;64.81;97107.25;5092988;28;20218;-64
2021/05/10 00:33:15;;;;;;;2.00;1.80;;;;;;;16.80;64.79;97102.94;5092675;28;20215;-64
2021/05/10 00:35:41;;;;;;;2.07;1.80;;;;;;;16.73;64.46;97091.28;5096067;28;20363;-64
2021/05/10 00:38:07;;;;;;;2.63;2.17;;;;;;;16.73;64.32;97091.28;5095085;28;20685;-64
2021/05/10 00:40:34;;;;;;;2.97;2.20;;;;;;;16.69;63.76;97081.94;5097016;28;20257;-64
2021/05/10 00:43:00;;;;;;;2.70;2.03;;;;;;;16.65;64.58;97091.25;5096837;28;20263;-64
2021/05/10 00:45:27;;;;;;;2.93;2.13;;;;;;;16.55;65.64;97093.28;5096775;28;20240;-64
2021/05/10 00:47:54;;;;;;;3.07;2.07;;;;;;;16.44;66.31;97095.44;5096762;28;20620;-64
2021/05/10 00:50:21;;;;;;;2.53;2.27;;;;;;;16.30;67.52;97094.28;5096500;28;20202;-64
2021/05/10 00:52:47;;;;;;;4.03;2.50;;;;;;;16.14;68.44;97082.75;5096608;28;20252;-64
2021/05/10 00:55:14;;;;;;;2.80;2.40;;;;;;;16.00;69.63;97085.25;5096622;28;20230;-64
2021/05/10 00:57:45;;;;;;;3.27;2.50;;;;;;;15.85;69.98;97081.53;5096410;28;20232;-63
2021/05/10 01:00:12;;;;;;;4.20;2.57;;;;;;;15.71;70.26;97084.84;5096109;28;20206;-63
2021/05/10 01:02:39;;;;;;;4.10;2.77;;;;;;;15.60;71.10;97085.16;5096563;28;20269;-64
2021/05/10 01:05:08;;;;;;;3.43;2.73;;;;;;;15.57;70.40;97083.63;5096729;28;20674;-64
2021/05/10 01:07:35;;;;;;;3.50;2.60;;;;;;;15.49;70.63;97090.75;5096251;28;20211;-63
2021/05/10 01:10:08;;;;;;;4.63;2.70;;;;;;;15.40;71.24;97091.75;5096530;28;20226;-65
2021/05/10 01:12:35;;;;;;;3.73;2.60;;;;;;;15.25;72.64;97082.66;5096052;28;20211;-63
2021/05/10 01:15:01;;;;;;;3.40;2.60;;;;;;;15.07;75.07;97087.22;5096174;28;20226;-64
2021/05/10 01:17:28;;;;;;;3.63;2.43;;;;;;;14.91;75.69;97084.50;5095978;28;20210;-63
2021/05/10 01:19:54;;;;;;;2.80;2.50;;;;;;;14.80;76.07;97076.78;5095924;28;20214;-62
2021/05/10 01:22:22;;;;;;;3.30;2.50;;;;;;;14.72;76.72;97074.06;5096031;28;20569;-63
2021/05/10 01:24:49;;;;;;;3.33;2.47;;;;;;;14.61;77.49;97061.03;5096128;28;20210;-65
2021/05/10 01:27:15;;;;;;;3.10;2.50;;;;;;;14.46;78.09;97057.25;5095768;28;20687;-64
2021/05/10 01:29:41;;;;;;;4.00;2.60;;;;;;;14.34;78.92;97069.97;5093985;28;20222;-63
2021/05/10 01:32:07;;;;;;;4.17;2.50;;;;;;;14.29;79.05;97066.13;5095875;28;20235;-63
2021/05/10 01:34:33;;;;;;;3.20;2.50;;;;;;;14.31;78.51;97064.13;5095850;28;20778;-64
2021/05/10 01:36:59;;;;;;;2.87;2.37;;;;;;;14.26;78.26;97066.41;5095575;28;20293;-64
2021/05/10 01:39:25;;;;;;;3.27;2.30;;;;;;;14.23;78.14;97067.56;5095477;28;20214;-64
2021/05/10 01:41:52;;;;;;;2.80;2.50;;;;;;;14.16;78.96;97068.28;5095677;28;20301;-63
2021/05/10 01:44:18;;;;;;;3.97;2.20;;;;;;;14.08;80.17;97077.06;5095774;28;20211;-63
2021/05/10 01:46:43;;;;;;;2.73;2.30;;;;;;;14.04;79.98;97061.53;5095018;28;20211;-63
2021/05/10 01:49:09;;;;;;;3.17;1.83;;;;;;;13.95;80.90;97068.63;5095697;28;20256;-63
2021/05/10 01:51:36;;;;;;;2.40;2.20;;;;;;;13.88;81.83;97061.41;5095783;28;20219;-63
2021/05/10 01:54:02;;;;;;;2.57;2.03;;;;;;;13.85;81.26;97061.72;5095372;28;20214;-63
2021/05/10 01:56:28;;;;;;;2.50;2.00;;;;;;;13.79;81.59;97068.47;5093487;28;20230;-63
2021/05/10 01:58:55;;;;;;;3.00;1.77;;;;;;;13.79;81.54;97054.34;5095531;28;20629;-65
2021/05/10 02:01:22;;;;;;;2.70;2.03;;;;;;;13.76;81.17;97052.00;5095362;28;20246;-64
2021/05/10 02:03:48;;;;;;;3.00;1.70;;;;;;;13.64;81.93;97051.38;5095260;28;20215;-63
2021/05/10 02:06:14;;;;;;;2.23;2.03;;;;;;;13.58;82.66;97062.59;5095249;28;20222;-62
2021/05/10 02:08:41;;;;;;;3.33;1.80;;;;;;;13.55;83.93;97056.75;5094999;28;20213;-65
2021/05/10 02:11:07;;;;;;;2.93;1.90;;;;;;;13.56;82.51;97050.50;5095069;28;20211;-65
2021/05/10 02:13:33;;;;;;;2.17;1.73;;;;;;;13.57;82.49;97046.84;5095302;28;20213;-65
2021/05/10 02:16:02;;;;;;;2.20;1.77;;;;;;;13.55;81.87;97044.34;5095299;28;20242;-65
2021/05/10 02:18:31;;;;;;;3.30;1.87;;;;;;;13.46;82.59;97036.44;5095233;28;20215;-65
2021/05/10 02:20:58;;;;;;;1.93;1.80;;;;;;;13.34;84.08;97035.81;5094447;28;20215;-65
2021/05/10 02:23:25;;;;;;;5.33;2.13;;;;;;;13.32;85.09;97031.66;5093739;28;20256;-64
2021/05/10 02:25:53;;;;;;;2.40;2.20;;;;;;;13.35;84.86;97034.00;5094902;28;20215;-64
2021/05/10 02:28:22;;;;;;;2.93;1.90;;;;;;;13.45;84.25;97027.63;5094940;28;20241;-63
2021/05/10 02:30:48;;;;;;;2.13;1.93;;;;;;;13.56;83.84;97031.91;5094622;28;20301;-64
2021/05/10 02:33:17;;;;;;;3.23;1.80;;;;;;;13.60;82.90;97028.78;5094470;28;20256;-64
2021/05/10 02:35:44;;;;;;;2.33;1.80;;;;;;;13.66;82.45;97030.00;5094367;28;20253;-64
2021/05/10 02:38:10;;;;;;;3.27;2.33;;;;;;;13.77;82.95;97033.28;5094634;28;20211;-64
2021/05/10 02:40:37;;;;;;;3.07;2.13;;;;;;;13.80;83.21;97037.41;5094752;28;20217;-64
2021/05/10 02:43:04;;;;;;;3.03;2.07;;;;;;;13.83;82.59;97042.44;5094705;28;20215;-64
2021/05/10 02:45:30;;;;;;;2.63;2.00;;;;;;;13.79;82.86;97036.59;5094372;28;20210;-63
2021/05/10 02:47:56;;;;;;;2.10;1.90;;;;;;;13.82;82.83;97030.97;5092764;28;20222;-62
2021/05/10 02:50:25;;;;;;;2.97;2.27;;;;;;;13.85;82.87;97024.53;5094499;28;20206;-63
2021/05/10 02:52:52;;;;;;;3.00;2.70;;;;;;;13.83;82.80;97015.88;5094442;28;20203;-64
2021/05/10 02:55:19;;;;;;;4.07;2.60;;;;;;;13.86;83.21;97020.88;5094016;28;20241;-63
2021/05/10 02:57:45;;;;;;;4.50;3.00;;;;;;;13.82;83.75;97020.34;5093514;28;20207;-63
2021/05/10 03:00:15;;;;;;;3.20;2.90;;;;;;;13.83;83.25;97019.38;5094009;28;20211;-63
2021/05/10 03:02:41;;;;;;;4.90;3.33;;;;;;;13.87;83.50;97011.94;5094317;28;20622;-63
2021/05/10 03:05:10;;;;;;;3.70;3.10;;;;;;;13.87;83.15;97018.06;5093837;28;20689;-63
2021/05/10 03:07:37;;;;;;;4.57;3.20;;;;;;;13.84;83.77;97006.94;5094231;28;20211;-63
2021/05/10 03:10:05;;;;;;;4.57;3.20;;;;;;;13.79;84.44;97017.16;5094205;28;20217;-63
2021/05/10 03:12:31;;;;;;;4.87;3.30;;;;;;;13.78;84.36;97023.47;5094104;28;20210;-63
2021/05/10 03:14:57;;;;;;;5.93;4.10;;;;;;;13.78;84.15;97020.81;5092415;28;20230;-63
2021/05/10 03:17:23;;;;;;;3.80;3.40;;;;;;;13.80;84.40;97024.13;5094122;28;20214;-63
2021/05/10 03:19:49;;;;;;;5.80;3.87;;;;;;;13.72;85.47;97018.75;5093980;28;20245;-63
2021/05/10 03:22:15;;;;;;;4.60;3.53;;;;;;;13.67;85.81;97026.34;5093702;28;20214;-64
2021/05/10 03:24:42;;;;;;;4.03;3.60;;;;;;;13.63;86.30;97020.50;5094004;28;20247;-64
2021/05/10 03:27:08;;;;;;;4.77;3.93;;;;;;;13.59;87.33;97023.63;5093866;28;20219;-64
2021/05/10 03:29:34;;;;;;;4.33;3.60;;;;;;;13.56;87.94;97031.91;5093553;28;20207;-64
2021/05/10 03:32:00;;;;;;;5.20;3.97;;;;;;;13.55;88.10;97033.72;5093496;28;20335;-64
2021/05/10 03:34:26;;;;;;;5.73;4.20;;;;;;;13.54;88.17;97032.06;5093444;28;20719;-63
2021/05/10 03:36:52;;;;;;;4.73;4.23;;;;;;;13.51;88.46;97031.53;5093614;28;20231;-63
2021/05/10 03:39:18;;;;;;;5.87;4.30;;;;;;;13.49;89.39;97034.31;5091714;28;20250;-64
2021/05/10 03:41:45;;;;;;;4.67;4.00;;;;;;;13.49;89.80;97052.91;5093920;28;20266;-65
2021/05/10 03:44:10;;;;;;;4.63;3.93;;;;;;;13.55;89.93;97064.72;5093692;28;20207;-65
2021/05/10 03:46:36;;;;;;;5.13;4.57;;;;;;;13.65;89.63;97076.13;5093422;28;20249;-65
2021/05/10 03:49:03;;;;;;;5.97;4.43;;;;;;;13.77;89.83;97090.84;5093661;28;20203;-63
2021/05/10 03:51:29;;;;;;;8.87;4.60;;;;;;;13.87;89.06;97092.44;5093366;28;20214;-64
2021/05/10 03:53:55;;;;;;;5.97;4.30;;;;;;;14.00;87.90;97081.44;5093336;28;20257;-63
2021/05/10 03:56:21;;;;;;;4.37;3.90;;;;;;;14.10;86.92;97085.69;5092987;28;20652;-63
2021/05/10 03:58:48;;;;;;;5.83;3.97;;;;;;;14.22;85.77;97092.47;5093144;28;20238;-64
2021/05/10 04:01:14;;;;;;;6.03;4.23;;;;;;;14.28;85.19;97085.69;5093107;28;20252;-65
2021/05/10 04:03:44;;;;;;;5.77;3.90;;;;;;;14.44;84.27;97096.47;5093346;28;20564;-64
2021/05/10 04:06:26;;;;;;;4.73;3.20;;;;;;;14.58;82.51;97093.25;5091531;28;20218;-64
2021/05/10 04:09:12;;;;;;;4.23;3.50;;;;;;;14.66;81.90;97095.97;5096270;28;20210;-65
2021/05/10 04:14:24;;;;;;;3.47;2.50;;;;;;;14.76;79.70;97078.06;5099742;28;20744;-65
2021/05/10 04:16:50;;;;;;;3.73;3.00;;;;;;;14.88;79.47;97090.97;5099523;28;20238;-64
2021/05/10 04:19:16;;;;;;;3.83;3.10;;;;;;;14.87;82.15;97099.09;5099782;28;20207;-65
2021/05/10 04:21:43;;;;;;;3.83;3.10;;;;;;;14.87;81.06;97105.25;5100040;28;20207;-64
2021/05/10 04:24:09;;;;;;;3.23;2.50;;;;;;;14.92;78.04;97118.09;5099904;28;20202;-64
2021/05/10 04:26:35;;;;;;;2.50;2.23;;;;;;;14.96;76.52;97119.44;5099851;28;20548;-64
2021/05/10 04:29:01;;;;;;;3.87;2.50;;;;;;;15.05;75.97;97115.81;5099725;28;20263;-64
2021/05/10 04:31:28;;;;;;;3.03;2.47;;;;;;;15.11;76.35;97123.19;5098053;28;20217;-64
2021/05/10 04:33:54;;;;;;;2.93;2.63;;;;;;;15.17;76.13;97122.53;5099840;28;20579;-64
2021/05/10 04:36:20;;;;;;;3.93;2.60;;;;;;;15.24;75.66;97115.59;5099452;28;20235;-64
2021/05/10 04:38:46;;;;;;;2.87;2.50;;;;;;;15.31;75.39;97105.97;5099745;28;20210;-64
2021/05/10 04:41:12;;;;;;;3.33;2.50;;;;;;;15.32;74.36;97105.84;5099779;28;20752;-64
2021/05/10 04:43:38;;;;;;;3.60;2.50;;;;;;;15.30;75.31;97117.63;5099844;28;20206;-62
2021/05/10 04:46:04;;;;;;;2.93;2.57;;;;;;;15.28;76.05;97108.97;5099425;28;20683;-63
2021/05/10 04:48:31;;;;;;;2.80;2.40;;;;;;;15.31;75.37;97105.97;5099715;28;20234;-64
2021/05/10 04:50:57;;;;;;;2.93;2.43;;;;;;;15.37;75.39;97100.03;5099502;28;20207;-64
2021/05/10 04:53:23;;;;;;;2.93;2.60;;;;;;;15.41;76.00;97101.41;5099589;28;20222;-64
2021/05/10 04:55:49;;;;;;;5.70;2.80;;;;;;;15.44;76.61;97111.72;5099565;28;20226;-63
2021/05/10 04:58:15;;;;;;;4.13;2.40;;;;;;;15.51;76.31;97099.44;5098203;28;20679;-64
2021/05/10 05:00:41;;;;;;;3.00;2.43;;;;;;;15.60;75.98;97109.13;5099562;28;20206;-64
2021/05/10 05:03:07;;;;;;;3.23;2.77;;;;;;;15.68;77.79;97112.66;5099476;28;20270;-64
2021/05/10 05:05:34;;;;;;;3.73;2.60;;;;;;;15.80;76.69;97110.50;5099526;28;20206;-64
2021/05/10 05:08:00;;;;;;;2.90;2.37;;;;;;;15.95;76.31;97119.53;5099532;28;20203;-64
2021/05/10 05:10:26;;;;;;;3.87;2.97;;;;;;;16.10;77.77;97111.56;5099388;28;20210;-64
2021/05/10 05:12:52;;;;;;;4.03;2.40;;;;;;;16.16;76.26;97105.56;5099187;28;20717;-64
2021/05/10 05:15:20;;;;;;;3.73;2.30;;;;;;;16.28;74.39;97108.75;5099662;28;20599;-64
2021/05/10 05:17:46;;;;;;;3.10;2.63;;;;;;;16.36;75.81;97108.75;5099192;28;20218;-65
2021/05/10 05:20:13;;;;;;;3.43;2.60;;;;;;;16.41;77.42;97117.94;5097443;28;20214;-63
2021/05/10 05:22:40;;;;;;;4.43;2.83;;;;;;;16.47;70.44;97119.13;5096167;28;20209;-64
2021/05/10 05:25:08;;;;;;;2.63;2.20;;;;;;;16.55;68.53;97111.13;5094491;28;20207;-64
2021/05/10 05:27:35;;;;;;;3.40;2.70;;;;;;;16.62;70.31;97125.44;5095787;28;20211;-63
2021/05/10 05:30:01;;;;;;;3.67;2.50;;;;;;;16.64;71.28;97134.97;5095960;28;20214;-64
2021/05/10 05:32:28;;;;;;;4.00;2.87;;;;;;;16.60;70.03;97130.97;5095810;28;20246;-64
2021/05/10 05:34:54;;;;;;;2.57;2.37;;;;;;;16.56;72.56;97142.97;5095968;28;20207;-64
2021/05/10 05:37:20;;;;;;;3.80;2.60;;;;;;;16.49;72.47;97147.31;5096259;28;20211;-64
2021/05/10 05:39:47;;;;;;;4.23;2.53;;;;;;;16.60;68.35;97146.97;5095969;28;20690;-64
2021/05/10 05:42:13;;;;;;;2.60;2.40;;;;;;;16.69;67.07;97145.13;5095529;28;20224;-64
2021/05/10 05:44:43;;;;;;;4.07;2.67;;;;;;;16.75;71.14;97142.63;5095758;28;20203;-64
2021/05/10 05:47:15;;;;;;;3.83;2.73;;;;;;;16.81;70.12;97152.63;5095882;28;20242;-64
2021/05/10 05:49:41;;;;;;;3.87;2.50;;;;;;;16.92;72.55;97146.94;5093595;28;20677;-63
2021/05/10 05:52:07;;;;;;;3.43;2.70;;;;;;;17.06;75.82;97159.59;5095591;28;20253;-63
2021/05/10 05:54:33;;;;;;;5.10;2.53;;;;;;;17.19;78.30;97157.25;5095443;28;20206;-63
2021/05/10 05:57:00;;;;;;;3.83;2.80;;;;;;;17.32;77.13;97175.41;5095433;28;20685;-64
2021/05/10 05:59:26;;;;;;;3.97;2.73;;;;;;;17.42;76.32;97178.75;5095224;28;20214;-64
2021/05/10 06:01:52;;;;;;;5.67;3.00;;;;;;;17.56;69.70;97186.06;5095568;28;20230;-65
2021/05/10 06:04:18;;;;;;;2.80;2.50;;;;;;;17.57;67.21;97180.56;5095131;28;20289;-63
2021/05/10 06:06:44;;;;;;;4.40;2.50;;;;;;;17.52;67.18;97198.09;5095335;28;20590;-64
2021/05/10 06:09:11;;;;;;;4.00;2.50;;;;;;;17.54;66.74;97204.94;5095098;28;20210;-63
2021/05/10 06:11:37;;;;;;;4.10;2.33;;;;;;;17.54;66.37;97233.47;5094957;28;20763;-63
2021/05/10 06:14:04;;;;;;;4.17;2.47;;;;;;;17.61;66.71;97240.66;5094948;28;20247;-62
2021/05/10 06:16:31;;;;;;;5.57;2.57;;;;;;;17.57;66.57;97263.41;5093498;28;20235;-62
2021/05/10 06:18:58;;;;;;;3.97;3.00;;;;;;;17.54;65.49;97293.09;5094960;28;20217;-62
2021/05/10 06:21:24;;;;;;;4.33;2.40;;;;;;;17.68;63.55;97271.03;5094837;28;20678;-62
2021/05/10 06:23:51;;;;;;;3.10;2.70;;;;;;;17.71;63.38;97240.47;5094693;28;20211;-64
2021/05/10 06:26:17;;;;;;;4.73;2.60;;;;;;;17.81;63.91;97244.59;5094911;28;20210;-63
2021/05/10 06:28:43;;;;;;;3.80;2.23;;;;;;;17.95;64.39;97256.41;5094922;28;20214;-63
2021/05/10 06:31:11;;;;;;;3.23;2.23;;;;;;;18.13;64.80;97255.19;5094568;28;20215;-63
2021/05/10 06:33:37;;;;;;;3.10;2.43;;;;;;;18.39;62.20;97247.72;5093813;28;20207;-63
2021/05/10 06:36:03;;;;;;;3.63;2.13;;;;;;;18.55;61.79;97249.47;5094873;28;20227;-64
2021/05/10 06:38:30;;;;;;;4.07;2.13;;;;;;;18.71;60.28;97258.22;5094702;28;20215;-63
2021/05/10 06:40:56;;;;;;;2.67;2.03;;;;;;;18.89;60.68;97257.97;5094457;28;20215;-63
2021/05/10 06:43:22;;;;;;;4.07;2.10;;;;;;;19.03;64.47;97239.25;5092981;28;20237;-63
2021/05/10 06:45:48;;;;;;;2.60;2.33;;;;;;;19.25;68.12;97229.53;5094620;28;20202;-64
2021/05/10 06:48:26;;;;;;;2.50;2.27;;;;;;;19.46;68.63;97235.06;5094152;28;20213;-63
2021/05/10 06:50:52;;;;;;;2.50;2.30;;;;;;;19.63;68.92;97241.94;5094446;28;20214;-62
2021/05/10 06:53:18;;;;;;;3.73;2.30;;;;;;;19.76;68.67;97253.66;5094511;28;20722;-63
2021/05/10 06:55:44;;;;;;;3.10;2.00;;;;;;;19.92;69.08;97255.31;5094127;28;20234;-64
2021/05/10 06:58:10;;;;;;;3.83;2.13;;;;;;;19.99;68.08;97258.97;5094342;28;20640;-63
2021/05/10 07:00:38;;;;;;;3.57;2.13;;;;;;;20.10;65.63;97262.03;5093949;28;20228;-62
2021/05/10 07:03:03;;;;;;;3.90;2.17;;;;;;;20.19;61.05;97270.81;5094197;28;20235;-64
2021/05/10 07:05:30;;;;;;;2.30;1.80;;;;;;;20.27;60.72;97262.66;5094302;28;20206;-64
2021/05/10 07:07:56;;;;;;;5.30;2.47;;;;;;;20.35;62.04;97271.44;5092369;28;20206;-64
2021/05/10 07:10:22;;;;;;;2.50;1.90;;;;;;;20.29;55.37;97293.66;5094144;28;20570;-64
2021/05/10 07:12:48;;;;;;;3.63;2.33;;;;;;;20.40;55.30;97295.88;5094096;28;20206;-64
2021/05/10 07:15:14;;;;;;;2.77;2.00;;;;;;;20.43;52.56;97314.28;5093862;28;20231;-64
2021/05/10 07:17:40;;;;;;;2.87;1.80;;;;;;;20.57;52.64;97320.66;5093842;28;20229;-64
2021/05/10 07:20:07;;;;;;;2.43;1.87;;;;;;;20.74;53.30;97332.84;5093731;28;20664;-64
2021/05/10 07:22:34;;;;;;;2.23;2.03;;;;;;;20.89;52.66;97329.16;5093939;28;20214;-64
2021/05/10 07:24:59;;;;;;;2.43;2.00;;;;;;;20.96;52.44;97335.41;5093915;28;20225;-64
2021/05/10 07:27:25;;;;;;;4.73;2.30;;;;;;;21.03;53.52;97340.88;5094022;28;20214;-63
2021/05/10 07:29:51;;;;;;;5.00;2.00;;;;;;;21.07;53.07;97343.00;5093836;28;20210;-63
2021/05/10 07:32:17;;;;;;;1.80;1.70;;;;;;;21.36;52.32;97337.50;5093667;28;20274;-63
2021/05/10 07:34:43;;;;;;;4.87;2.10;;;;;;;21.67;51.79;97329.97;5092057;28;20691;-63
2021/05/10 07:37:09;;;;;;;3.33;1.90;;;;;;;21.76;51.20;97344.94;5093557;28;20303;-63
2021/05/10 07:39:36;;;;;;;2.17;1.70;;;;;;;21.75;50.90;97342.47;5093417;28;20249;-63
2021/05/10 07:42:02;;;;;;;3.37;1.80;;;;;;;21.57;52.00;97340.19;5093660;28;20209;-63
2021/05/10 07:44:30;;;;;;;2.20;2.00;;;;;;;21.45;52.27;97341.72;5093193;28;20202;-63
2021/05/10 07:46:56;;;;;;;2.50;2.10;;;;;;;21.51;52.44;97350.91;5093148;28;20297;-63
2021/05/10 07:49:22;;;;;;;3.60;2.00;;;;;;;21.41;53.36;97351.22;5093323;28;20238;-63
2021/05/10 07:51:48;;;;;;;2.73;1.80;;;;;;;21.44;53.07;97358.88;5093341;28;20234;-64
2021/05/10 07:54:14;;;;;;;6.63;2.07;;;;;;;21.63;53.50;97355.53;5093545;28;20264;-65
2021/05/10 07:56:40;;;;;;;4.17;2.10;;;;;;;21.95;52.24;97355.00;5093297;28;20697;-63
2021/05/10 07:59:10;;;;;;;4.53;2.00;;;;;;;22.23;51.54;97361.22;5093396;28;20211;-64
2021/05/10 08:01:36;;;;;;;4.47;2.10;;;;;;;22.36;52.03;97358.63;5091055;28;20330;-64
2021/05/10 08:04:02;;;;;;;2.20;1.60;;;;;;;22.42;51.82;97360.53;5090164;28;20214;-64
2021/05/10 08:06:28;;;;;;;2.57;1.80;;;;;;;22.49;50.97;97364.13;5092208;28;20211;-64
2021/05/10 08:08:54;;;;;;;3.00;1.83;;;;;;;22.47;51.42;97344.63;5093664;28;20303;-64
2021/05/10 08:11:20;;;;;;;3.40;1.80;;;;;;;22.41;52.08;97350.78;5093283;28;20599;-63
2021/05/10 08:13:47;;;;;;;4.07;1.60;;;;;;;22.47;51.21;97328.47;5093216;28;20303;-64
2021/05/10 08:16:13;;;;;;;3.67;1.93;;;;;;;22.44;50.85;97328.88;5092973;28;20230;-64
2021/05/10 08:18:41;;;;;;;2.67;1.73;;;;;;;22.31;51.94;97331.44;5093193;28;20355;-63
2021/05/10 08:21:07;;;;;;;2.47;1.50;;;;;;;22.22;52.16;97340.72;5093052;28;20207;-63
2021/05/10 08:23:33;;;;;;;4.40;2.13;;;;;;;22.08;51.82;97344.34;5092894;28;20207;-63
2021/05/10 08:25:59;;;;;;;3.33;1.83;;;;;;;22.12;52.17;97345.63;5092310;28;20213;-65
2021/05/10 08:28:25;;;;;;;3.00;1.73;;;;;;;22.25;51.36;97350.28;5092425;28;20211;-64
2021/05/10 08:30:53;;;;;;;5.10;2.07;;;;;;;22.49;50.54;97345.25;5092723;28;20293;-64
2021/05/10 08:33:19;;;;;;;3.57;1.70;;;;;;;22.93;49.75;97353.75;5093062;28;20561;-63
2021/05/10 08:35:45;;;;;;;3.77;1.70;;;;;;;23.04;48.90;97357.75;5092921;28;20355;-63
2021/05/10 08:38:11;;;;;;;2.50;1.50;;;;;;;22.99;48.86;97352.94;5092762;28;20233;-64
2021/05/10 08:40:37;;;;;;;3.37;1.83;;;;;;;22.77;49.59;97362.19;5092946;28;20295;-64
2021/05/10 08:43:16;;;;;;;3.70;1.70;;;;;;;22.44;50.02;97366.56;5093014;28;20207;-63
2021/05/10 08:45:45;;;;;;;3.43;1.60;;;;;;;22.14;51.58;97365.09;5092814;28;20221;-64
2021/05/10 08:48:11;;;;;;;2.70;1.80;;;;;;;22.00;52.04;97371.41;5092485;28;20199;-64
2021/05/10 08:50:38;;;;;;;2.07;1.70;;;;;;;21.91;52.75;97386.03;5092480;28;20207;-64
2021/05/10 08:53:04;;;;;;;3.03;1.70;;;;;;;21.75;53.47;97389.00;5091314;28;20211;-63
2021/05/10 08:55:31;;;;;;;3.97;1.90;;;;;;;21.65;54.40;97385.75;5093824;28;20241;-63
2021/05/10 08:57:57;;;;;;;3.43;2.00;;;;;;;21.77;53.93;97381.56;5096783;28;20215;-63
2021/05/10 09:00:23;;;;;;;2.37;1.57;;;;;;;21.84;54.18;97385.16;5096364;28;20222;-64
2021/05/10 09:02:49;;;;;;;2.90;1.83;;;;;;;21.86;53.79;97383.09;5096769;28;20238;-63
2021/05/10 09:05:18;;;;;;;3.03;1.80;;;;;;;21.79;53.95;97381.38;5096417;28;20656;-63
2021/05/10 09:07:46;;;;;;;3.87;1.90;;;;;;;21.68;54.34;97396.19;5096263;28;20782;-63
2021/05/10 09:10:13;;;;;;;3.30;2.00;;;;;;;21.49;54.85;97394.09;5096627;28;20242;-62
2021/05/10 09:12:41;;;;;;;5.10;2.20;;;;;;;21.34;55.54;97405.94;5096185;28;20215;-65
2021/05/10 09:15:22;;;;;;;3.70;2.00;;;;;;;21.53;55.65;97398.03;5095925;28;20684;-65
2021/05/10 09:17:51;;;;;;;4.33;1.87;;;;;;;21.69;54.61;97408.59;5096335;28;20218;-64
2021/05/10 09:20:21;;;;;;;2.57;1.87;;;;;;;21.58;54.85;97406.38;5094822;28;20544;-65
2021/05/10 09:22:53;;;;;;;4.70;1.73;;;;;;;21.48;54.54;97400.50;5096279;28;20207;-65
2021/05/10 09:25:19;;;;;;;2.50;1.87;;;;;;;21.59;54.20;97391.09;5095836;28;20581;-64
2021/05/10 09:27:46;;;;;;;1.97;1.60;;;;;;;21.59;53.90;97396.47;5095999;28;20202;-64
2021/05/10 09:30:18;;;;;;;3.40;1.43;;;;;;;21.41;53.72;97398.75;5095827;28;20215;-64
2021/05/10 09:32:49;;;;;;;3.27;1.63;;;;;;;21.44;53.56;97404.59;5096362;28;20210;-64
2021/05/10 09:35:27;;;;;;;6.27;1.70;;;;;;;21.60;53.66;97411.56;5095898;28;20207;-64
2021/05/10 09:38:04;;;;;;;4.70;1.60;;;;;;;21.67;52.67;97405.28;5095565;28;20249;-64
2021/05/10 09:40:41;;;;;;;2.97;1.40;;;;;;;21.76;52.49;97406.78;5095666;28;20255;-65
2021/05/10 09:43:08;;;;;;;1.70;1.23;;;;;;;21.83;52.60;97398.78;5095802;28;20206;-64
2021/05/10 09:45:38;;;;;;;1.80;0.97;;;;;;;21.78;52.07;97402.06;5093777;28;20672;-65
2021/05/10 09:48:09;;;;;;;2.83;1.17;;;;;;;21.68;51.18;97416.84;5095637;28;20221;-65
2021/05/10 09:50:39;;;;;;;1.90;0.93;;;;;;;21.91;51.39;97407.56;5095404;28;20598;-63
2021/05/10 09:53:07;;;;;;;1.50;1.00;;;;;;;22.10;51.14;97412.28;5095570;28;20207;-65
2021/05/10 09:55:52;;;;;;;1.77;1.00;;;;;;;21.88;50.08;97410.63;5095305;28;20235;-65
2021/05/10 09:58:20;;;;;;;2.63;1.17;;;;;;;21.73;49.94;97409.88;5095640;28;20207;-64
2021/05/10 10:00:52;;;;;;;1.03;0.80;;;;;;;21.80;51.04;97416.16;5095670;28;20211;-63
2021/05/10 10:03:34;;;;;;;2.00;1.20;;;;;;;21.81;51.49;97420.50;5095896;28;20231;-64
2021/05/10 10:06:03;;;;;;;3.17;1.10;;;;;;;21.85;51.18;97420.94;5094825;28;20226;-64
2021/05/10 10:08:29;;;;;;;1.77;1.00;;;;;;;21.71;50.60;97406.53;5095390;28;20211;-64
2021/05/10 10:10:57;;;;;;;3.33;0.87;;;;;;;21.54;50.46;97413.19;5093685;28;20252;-63
2021/05/10 10:13:23;;;;;;;1.13;0.93;;;;;;;21.47;51.17;97420.31;5095292;28;20221;-63
2021/05/10 10:15:49;;;;;;;2.10;0.93;;;;;;;21.58;50.81;97430.59;5095100;28;20231;-64
2021/05/10 10:18:17;;;;;;;1.80;0.80;;;;;;;21.72;50.37;97437.81;5094789;28;20672;-64
2021/05/10 10:20:45;;;;;;;1.27;0.70;;;;;;;21.49;51.31;97442.50;5094727;28;20210;-64
2021/05/10 10:23:14;;;;;;;0.90;0.70;;;;;;;21.32;52.11;97438.38;5094952;28;20702;-63
2021/05/10 10:25:40;;;;;;;1.33;0.83;;;;;;;21.47;52.66;97452.59;5094707;28;20207;-63
2021/05/10 10:28:08;;;;;;;0.87;0.80;;;;;;;21.75;52.14;97442.78;5094791;28;20214;-64
2021/05/10 10:30:37;;;;;;;1.30;0.90;;;;;;;21.92;51.87;97454.97;5094641;28;20252;-64
2021/05/10 10:33:08;;;;;;;1.97;0.80;;;;;;;21.95;51.51;97468.03;5094674;28;20214;-63
2021/05/10 10:35:36;;;;;;;1.27;0.70;;;;;;;21.76;51.23;97476.72;5094733;28;20233;-63
2021/05/10 10:38:02;;;;;;;1.57;0.70;;;;;;;21.67;51.29;97480.59;5093097;28;20293;-63
2021/05/10 10:40:29;;;;;;;2.33;0.70;;;;;;;21.41;52.30;97491.03;5094598;28;20207;-63
2021/05/10 10:43:20;;;;;;;0.97;0.90;;;;;;;21.34;52.14;97506.22;5094511;28;20215;-63
2021/05/10 10:46:22;;;;;;;0.97;0.70;;;;;;;21.58;52.81;97515.81;5094594;28;20272;-63
2021/05/10 10:48:50;;;;;;;1.40;0.93;;;;;;;21.81;52.05;97525.41;5094727;28;20213;-63
2021/05/10 10:51:16;;;;;;;1.10;1.00;;;;;;;21.77;52.09;97512.56;5094343;28;20219;-63
2021/05/10 10:53:44;;;;;;;1.93;1.20;;;;;;;21.72;51.91;97497.00;5094395;28;20206;-64
2021/05/10 10:56:11;;;;;;;2.77;1.00;;;;;;;21.82;51.94;97473.28;5093959;28;20238;-63
2021/05/10 10:58:40;;;;;;;0.90;0.80;;;;;;;21.87;52.20;97470.84;5094278;28;20211;-63
2021/05/10 11:01:11;;;;;;;2.00;1.07;;;;;;;21.75;52.18;97483.16;5093990;28;20206;-63
2021/05/10 11:03:38;;;;;;;1.57;0.80;;;;;;;21.79;52.26;97495.19;5092555;28;20635;-64
2021/05/10 11:06:05;;;;;;;0.90;0.80;;;;;;;21.83;51.37;97490.28;5094039;28;20215;-64
2021/05/10 11:08:48;;;;;;;2.23;0.80;;;;;;;21.76;51.53;97492.88;5094343;28;20577;-63
2021/05/10 11:11:41;;;;;;;1.87;1.10;;;;;;;21.59;51.54;97504.03;5093856;28;20211;-63
2021/05/10 11:14:15;;;;;;;0.90;0.70;;;;;;;21.42;51.94;97508.81;5094150;28;20264;-63
2021/05/10 11:16:46;;;;;;;4.77;1.10;;;;;;;21.40;52.16;97510.03;5093963;28;20639;-63
2021/05/10 11:19:32;;;;;;;1.37;0.83;;;;;;;21.38;51.68;97504.81;5093330;28;20258;-63
2021/05/10 11:21:58;;;;;;;0.83;0.60;;;;;;;21.22;52.12;97513.06;5093622;28;20702;-63
2021/05/10 11:24:26;;;;;;;1.23;0.90;;;;;;;21.19;51.44;97526.91;5093930;28;20210;-63
2021/05/10 11:26:55;;;;;;;1.53;0.70;;;;;;;21.00;52.07;97532.00;5093917;28;20300;-63
2021/05/10 11:29:47;;;;;;;2.00;0.57;;;;;;;21.13;51.71;97530.34;5092203;28;20214;-63
2021/05/10 11:32:31;;;;;;;1.60;0.70;;;;;;;21.03;51.68;97537.03;5094092;28;20686;-63
2021/05/10 11:34:57;;;;;;;1.60;0.70;;;;;;;21.00;52.29;97546.28;5093676;28;20210;-63
2021/05/10 11:37:25;;;;;;;1.17;0.60;;;;;;;20.82;51.07;97537.72;5093268;28;20723;-62
2021/05/10 11:39:54;;;;;;;1.53;0.70;;;;;;;20.71;51.81;97546.22;5093573;28;20293;-63